createdAt,value
2022-12-08T00:00:24.188Z,3.26
2022-12-08T00:01:24.155Z,3.26
2022-12-08T00:02:24.288Z,3.28
2022-12-08T00:03:24.273Z,3.28
2022-12-08T00:04:24.146Z,3.31
2022-12-08T00:05:24.118Z,3.31
2022-12-08T00:06:24.123Z,3.34
2022-12-08T00:07:24.092Z,3.32
2022-12-08T00:08:24.259Z,3.32
2022-12-08T00:09:24.171Z,3.34
2022-12-08T00:10:48.467Z,3.32
2022-12-08T00:11:24.060Z,3.29
2022-12-08T00:12:24.064Z,3.34
2022-12-08T00:13:24.046Z,3.31
2022-12-08T00:14:24.042Z,3.32
2022-12-08T00:15:24.017Z,3.31
2022-12-08T00:16:24.085Z,3.32
2022-12-08T00:17:23.989Z,3.31
2022-12-08T00:18:24.076Z,3.29
2022-12-08T00:19:23.985Z,3.29
2022-12-08T00:20:23.994Z,3.26
2022-12-08T00:21:24.113Z,3.29
2022-12-08T00:22:23.967Z,3.32
2022-12-08T00:23:23.927Z,3.36
2022-12-08T00:24:23.960Z,3.40
2022-12-08T00:25:23.905Z,3.42
2022-12-08T00:26:23.924Z,3.42
2022-12-08T00:27:23.892Z,3.44
2022-12-08T00:28:24.011Z,3.44
2022-12-08T00:29:23.879Z,3.45
2022-12-08T00:30:23.879Z,3.47
2022-12-08T00:31:23.884Z,3.47
2022-12-08T00:32:23.908Z,3.47
2022-12-08T00:33:23.824Z,3.48
2022-12-08T00:34:23.864Z,3.48
2022-12-08T00:35:23.807Z,3.51
2022-12-08T00:36:23.835Z,3.51
2022-12-08T00:37:23.785Z,3.51
2022-12-08T00:38:23.795Z,3.51
2022-12-08T00:39:23.769Z,3.51
2022-12-08T00:40:23.790Z,3.53
2022-12-08T00:41:23.744Z,3.51
2022-12-08T00:42:23.751Z,3.51
2022-12-08T00:43:23.736Z,3.51
2022-12-08T00:44:23.739Z,3.51
2022-12-08T00:45:23.729Z,3.53
2022-12-08T00:46:23.772Z,3.53
2022-12-08T00:47:25.127Z,3.53
2022-12-08T00:48:23.704Z,3.55
2022-12-08T00:49:23.666Z,3.53
2022-12-08T00:50:23.698Z,3.55
2022-12-08T00:51:23.650Z,3.56
2022-12-08T00:52:23.655Z,3.55
2022-12-08T00:53:23.619Z,3.55
2022-12-08T00:54:23.630Z,3.55
2022-12-08T00:55:23.604Z,3.55
2022-12-08T00:56:23.621Z,3.51
2022-12-08T00:57:23.578Z,3.53
2022-12-08T00:58:23.595Z,3.55
2022-12-08T00:59:23.555Z,3.55
2022-12-08T01:00:23.569Z,3.53
2022-12-08T01:01:23.566Z,3.55
2022-12-08T01:02:23.550Z,3.51
2022-12-08T01:03:23.532Z,3.50
2022-12-08T01:04:23.528Z,3.50
2022-12-08T01:05:23.497Z,3.50
2022-12-08T01:06:23.522Z,3.48
2022-12-08T01:07:23.474Z,3.45
2022-12-08T01:08:23.552Z,3.47
2022-12-08T01:09:23.452Z,3.48
2022-12-08T01:10:23.465Z,3.51
2022-12-08T01:11:23.451Z,3.55
2022-12-08T01:12:23.448Z,3.58
2022-12-08T01:13:23.414Z,3.58
2022-12-08T01:14:23.425Z,3.62
2022-12-08T01:15:23.392Z,3.62
2022-12-08T01:16:23.424Z,3.63
2022-12-08T01:17:23.387Z,3.62
2022-12-08T01:18:23.393Z,3.63
2022-12-08T01:19:23.348Z,3.66
2022-12-08T01:20:23.364Z,3.63
2022-12-08T01:21:23.330Z,3.63
2022-12-08T01:22:23.354Z,3.63
2022-12-08T01:23:23.314Z,3.65
2022-12-08T01:24:23.318Z,3.63
2022-12-08T01:25:23.286Z,3.65
2022-12-08T01:26:23.302Z,3.63
2022-12-08T01:27:23.310Z,3.62
2022-12-08T01:28:23.266Z,3.62
2022-12-08T01:29:23.285Z,3.62
2022-12-08T01:30:23.242Z,3.60
2022-12-08T01:31:23.359Z,3.62
2022-12-08T01:32:23.222Z,3.62
2022-12-08T01:33:23.244Z,3.62
2022-12-08T01:34:23.206Z,3.65
2022-12-08T01:35:23.209Z,3.65
2022-12-08T01:36:23.186Z,3.65
2022-12-08T01:37:23.190Z,3.65
2022-12-08T01:38:23.169Z,3.65
2022-12-08T01:39:23.167Z,3.68
2022-12-08T01:40:23.136Z,3.68
2022-12-08T01:41:23.147Z,3.68
2022-12-08T01:42:23.123Z,3.70
2022-12-08T01:43:23.162Z,3.70
2022-12-08T01:44:23.091Z,3.70
2022-12-08T01:45:23.109Z,3.70
2022-12-08T01:46:23.122Z,3.69
2022-12-08T01:47:23.091Z,3.68
2022-12-08T01:48:23.085Z,3.68
2022-12-08T01:49:23.076Z,3.69
2022-12-08T01:50:23.039Z,3.69
2022-12-08T01:51:23.041Z,3.68
2022-12-08T01:52:23.008Z,3.69
2022-12-08T01:53:23.028Z,3.69
2022-12-08T01:54:22.997Z,3.69
2022-12-08T01:55:22.998Z,3.73
2022-12-08T01:56:22.971Z,3.73
2022-12-08T01:57:22.983Z,3.70
2022-12-08T01:58:22.971Z,3.69
2022-12-08T01:59:22.975Z,3.68
2022-12-08T02:00:22.926Z,3.73
2022-12-08T02:01:23.024Z,3.73
2022-12-08T02:02:22.952Z,3.74
2022-12-08T02:03:22.931Z,3.76
2022-12-08T02:04:22.887Z,3.76
2022-12-08T02:05:22.911Z,3.77
2022-12-08T02:06:22.866Z,3.80
2022-12-08T02:07:22.879Z,3.78
2022-12-08T02:08:22.915Z,3.77
2022-12-08T02:09:22.853Z,3.78
2022-12-08T02:10:22.836Z,3.76
2022-12-08T02:11:22.841Z,3.76
2022-12-08T02:12:22.800Z,3.77
2022-12-08T02:13:22.815Z,3.76
2022-12-08T02:14:22.784Z,3.74
2022-12-08T02:15:22.830Z,3.76
2022-12-08T02:16:22.814Z,3.74
2022-12-08T02:17:22.775Z,3.76
2022-12-08T02:18:22.738Z,3.77
2022-12-08T02:19:30.898Z,3.77
2022-12-08T02:20:22.736Z,3.76
2022-12-08T02:21:22.754Z,3.73
2022-12-08T02:22:22.702Z,3.80
2022-12-08T02:23:22.715Z,3.78
2022-12-08T02:24:22.677Z,3.76
2022-12-08T02:25:22.691Z,3.76
2022-12-08T02:26:22.668Z,3.78
2022-12-08T02:27:22.665Z,3.77
2022-12-08T02:28:22.633Z,3.76
2022-12-08T02:29:22.663Z,3.76
2022-12-08T02:30:22.615Z,3.76
2022-12-08T02:31:22.760Z,3.74
2022-12-08T02:32:22.596Z,3.77
2022-12-08T02:33:22.613Z,3.77
2022-12-08T02:34:22.576Z,3.77
2022-12-08T02:35:22.593Z,3.77
2022-12-08T02:36:22.552Z,3.78
2022-12-08T02:37:22.585Z,3.77
2022-12-08T02:38:22.538Z,3.77
2022-12-08T02:39:22.552Z,3.73
2022-12-08T02:40:22.513Z,3.74
2022-12-08T02:41:22.549Z,3.76
2022-12-08T02:42:22.505Z,3.77
2022-12-08T02:43:22.502Z,3.76
2022-12-08T02:44:22.475Z,3.78
2022-12-08T02:45:22.487Z,3.76
2022-12-08T02:46:22.560Z,3.77
2022-12-08T02:47:22.491Z,3.76
2022-12-08T02:48:22.431Z,3.74
2022-12-08T02:49:22.450Z,3.74
2022-12-08T02:50:22.412Z,3.73
2022-12-08T02:51:22.419Z,3.73
2022-12-08T02:52:22.400Z,3.73
2022-12-08T02:53:22.413Z,3.74
2022-12-08T02:54:22.369Z,3.76
2022-12-08T02:55:22.382Z,3.73
2022-12-08T02:56:22.347Z,3.73
2022-12-08T02:57:22.360Z,3.74
2022-12-08T02:58:22.352Z,3.73
2022-12-08T02:59:22.337Z,3.73
2022-12-08T03:00:22.306Z,3.74
2022-12-08T03:01:22.349Z,3.73
2022-12-08T03:02:22.328Z,3.70
2022-12-08T03:03:22.304Z,3.70
2022-12-08T03:04:22.279Z,3.68
2022-12-08T03:05:22.275Z,3.68
2022-12-08T03:06:22.243Z,3.68
2022-12-08T03:07:22.255Z,3.68
2022-12-08T03:08:22.321Z,3.65
2022-12-08T03:09:22.245Z,3.65
2022-12-08T03:10:22.210Z,3.65
2022-12-08T03:11:22.222Z,3.65
2022-12-08T03:12:22.202Z,3.66
2022-12-08T03:13:22.192Z,3.66
2022-12-08T03:14:22.200Z,3.63
2022-12-08T03:15:22.181Z,3.63
2022-12-08T03:16:22.277Z,3.63
2022-12-08T03:17:22.158Z,3.63
2022-12-08T03:18:22.139Z,3.63
2022-12-08T03:19:22.140Z,3.66
2022-12-08T03:20:22.109Z,3.62
2022-12-08T03:21:22.109Z,3.65
2022-12-08T03:22:22.082Z,3.62
2022-12-08T03:23:22.097Z,3.63
2022-12-08T03:24:22.056Z,3.65
2022-12-08T03:25:22.081Z,3.62
2022-12-08T03:26:22.048Z,3.65
2022-12-08T03:27:22.052Z,3.63
2022-12-08T03:28:22.037Z,3.65
2022-12-08T03:29:22.029Z,3.65
2022-12-08T03:30:22.064Z,3.65
2022-12-08T03:31:22.145Z,3.66
2022-12-08T03:32:21.974Z,3.65
2022-12-08T03:33:22.007Z,3.65
2022-12-08T03:34:21.951Z,3.66
2022-12-08T03:35:21.976Z,3.66
2022-12-08T03:36:21.941Z,3.63
2022-12-08T03:37:21.944Z,3.65
2022-12-08T03:38:21.909Z,3.65
2022-12-08T03:39:21.922Z,3.62
2022-12-08T03:40:21.899Z,3.63
2022-12-08T03:41:21.914Z,3.63
2022-12-08T03:42:21.874Z,3.63
2022-12-08T03:43:21.890Z,3.63
2022-12-08T03:44:21.849Z,3.63
2022-12-08T03:45:21.880Z,3.66
2022-12-08T03:46:54.962Z,3.63
2022-12-08T03:47:55.993Z,3.62
2022-12-08T03:48:55.945Z,3.65
2022-12-08T03:49:55.946Z,3.62
2022-12-08T03:50:56.056Z,3.63
2022-12-08T03:51:55.923Z,3.62
2022-12-08T03:52:55.909Z,3.60
2022-12-08T03:53:55.936Z,3.62
2022-12-08T03:54:55.868Z,3.62
2022-12-08T03:55:55.900Z,3.63
2022-12-08T03:56:55.845Z,3.62
2022-12-08T03:57:55.858Z,3.63
2022-12-08T03:58:55.864Z,3.62
2022-12-08T03:59:55.840Z,3.60
2022-12-08T04:00:55.827Z,3.62
2022-12-08T04:01:55.861Z,3.59
2022-12-08T04:02:55.847Z,3.62
2022-12-08T04:03:55.841Z,3.59
2022-12-08T04:04:55.784Z,3.59
2022-12-08T04:05:55.789Z,3.59
2022-12-08T04:06:55.756Z,3.62
2022-12-08T04:07:55.794Z,3.59
2022-12-08T04:08:55.727Z,3.60
2022-12-08T04:09:55.738Z,3.58
2022-12-08T04:10:55.733Z,3.56
2022-12-08T04:11:55.733Z,3.58
2022-12-08T04:12:55.703Z,3.56
2022-12-08T04:13:55.714Z,3.55
2022-12-08T04:14:55.699Z,3.58
2022-12-08T04:15:55.750Z,3.58
2022-12-08T04:16:55.671Z,3.62
2022-12-08T04:17:55.662Z,3.58
2022-12-08T04:18:55.626Z,3.58
2022-12-08T04:19:55.632Z,3.56
2022-12-08T04:20:55.608Z,3.58
2022-12-08T04:21:55.620Z,3.60
2022-12-08T04:22:55.597Z,3.56
2022-12-08T04:24:00.823Z,3.59
2022-12-08T04:24:55.568Z,3.58
2022-12-08T04:25:55.582Z,3.58
2022-12-08T04:26:55.554Z,3.59
2022-12-08T04:27:55.578Z,3.58
2022-12-08T04:28:55.528Z,3.59
2022-12-08T04:29:55.539Z,3.60
2022-12-08T04:30:55.522Z,3.62
2022-12-08T04:31:55.625Z,3.63
2022-12-08T04:32:55.497Z,3.63
2022-12-08T04:33:55.502Z,3.62
2022-12-08T04:34:55.456Z,3.59
2022-12-08T04:35:55.485Z,3.60
2022-12-08T04:36:55.479Z,3.59
2022-12-08T04:37:55.448Z,3.60
2022-12-08T04:38:55.437Z,3.60
2022-12-08T04:39:55.456Z,3.63
2022-12-08T04:40:55.389Z,3.62
2022-12-08T04:41:55.409Z,3.63
2022-12-08T04:42:55.385Z,3.60
2022-12-08T04:43:55.395Z,3.63
2022-12-08T04:44:55.369Z,3.60
2022-12-08T04:45:55.365Z,3.60
2022-12-08T04:46:55.428Z,3.58
2022-12-08T04:47:55.339Z,3.60
2022-12-08T04:48:55.333Z,3.59
2022-12-08T04:49:55.330Z,3.59
2022-12-08T04:50:55.320Z,3.59
2022-12-08T04:51:55.310Z,3.59
2022-12-08T04:52:55.269Z,3.58
2022-12-08T04:53:55.310Z,3.59
2022-12-08T04:54:55.246Z,3.59
2022-12-08T04:55:55.280Z,3.55
2022-12-08T04:56:55.264Z,3.56
2022-12-08T04:57:55.251Z,3.58
2022-12-08T04:58:55.205Z,3.58
2022-12-08T04:59:55.236Z,3.55
2022-12-08T05:00:55.263Z,3.55
2022-12-08T05:01:55.404Z,3.53
2022-12-08T05:02:55.218Z,3.55
2022-12-08T05:03:55.188Z,3.56
2022-12-08T05:04:55.155Z,3.56
2022-12-08T05:05:55.186Z,3.55
2022-12-08T05:06:55.145Z,3.56
2022-12-08T05:07:55.234Z,3.53
2022-12-08T05:08:55.119Z,3.58
2022-12-08T05:09:55.173Z,3.53
2022-12-08T05:10:55.085Z,3.55
2022-12-08T05:11:55.106Z,3.56
2022-12-08T05:12:55.057Z,3.55
2022-12-08T05:13:55.078Z,3.55
2022-12-08T05:14:55.040Z,3.50
2022-12-08T05:15:55.181Z,3.51
2022-12-08T05:16:55.084Z,3.50
2022-12-08T05:17:55.074Z,3.51
2022-12-08T05:18:55.020Z,3.50
2022-12-08T05:19:55.015Z,3.48
2022-12-08T05:20:55.000Z,3.48
2022-12-08T05:21:55.005Z,3.48
2022-12-08T05:22:54.962Z,3.48
2022-12-08T05:23:54.980Z,3.45
2022-12-08T05:24:54.946Z,3.48
2022-12-08T05:25:54.964Z,3.48
2022-12-08T05:26:54.925Z,3.45
2022-12-08T05:28:06.252Z,3.45
2022-12-08T05:28:54.904Z,3.47
2022-12-08T05:29:54.913Z,3.48
2022-12-08T05:30:54.902Z,3.47
2022-12-08T05:31:54.947Z,3.48
2022-12-08T05:32:54.855Z,3.47
2022-12-08T05:33:57.422Z,3.48
2022-12-08T05:34:54.866Z,3.47
2022-12-08T05:35:54.851Z,3.50
2022-12-08T05:36:54.977Z,3.48
2022-12-08T05:37:54.854Z,3.45
2022-12-08T05:38:54.794Z,3.50
2022-12-08T05:39:54.805Z,3.48
2022-12-08T05:40:54.771Z,3.48
2022-12-08T05:41:54.812Z,3.53
2022-12-08T05:42:54.773Z,3.48
2022-12-08T05:43:54.763Z,3.50
2022-12-08T05:44:54.729Z,3.53
2022-12-08T05:45:54.826Z,3.53
2022-12-08T05:46:54.743Z,3.53
2022-12-08T05:47:54.731Z,3.50
2022-12-08T05:48:54.727Z,3.51
2022-12-08T05:49:54.722Z,3.50
2022-12-08T05:50:54.680Z,3.47
2022-12-08T05:51:54.699Z,3.45
2022-12-08T05:52:54.680Z,3.47
2022-12-08T05:53:54.677Z,3.48
2022-12-08T05:54:54.652Z,3.45
2022-12-08T05:55:54.684Z,3.47
2022-12-08T05:56:54.626Z,3.47
2022-12-08T05:57:54.640Z,3.47
2022-12-08T05:58:54.591Z,3.48
2022-12-08T05:59:54.598Z,3.45
2022-12-08T06:00:54.566Z,3.45
2022-12-08T06:01:54.626Z,3.42
2022-12-08T06:02:54.685Z,3.45
2022-12-08T06:03:54.564Z,3.45
2022-12-08T06:04:54.536Z,3.45
2022-12-08T06:05:54.554Z,3.42
2022-12-08T06:06:54.504Z,3.44
2022-12-08T06:07:54.589Z,3.42
2022-12-08T06:08:54.496Z,3.42
2022-12-08T06:09:54.499Z,3.42
2022-12-08T06:10:54.474Z,3.42
2022-12-08T06:11:54.517Z,3.41
2022-12-08T06:12:54.444Z,3.41
2022-12-08T06:13:54.473Z,3.47
2022-12-08T06:14:54.436Z,3.44
2022-12-08T06:15:54.455Z,3.44
2022-12-08T06:16:54.582Z,3.44
2022-12-08T06:17:54.424Z,3.42
2022-12-08T06:18:54.429Z,3.41
2022-12-08T06:19:54.392Z,3.41
2022-12-08T06:20:54.359Z,3.41
2022-12-08T06:21:54.368Z,3.40
2022-12-08T06:22:54.340Z,3.40
2022-12-08T06:23:54.375Z,3.41
2022-12-08T06:24:54.331Z,3.41
2022-12-08T06:25:54.331Z,3.41
2022-12-08T06:26:54.304Z,3.40
2022-12-08T06:27:54.310Z,3.37
2022-12-08T06:28:54.331Z,3.37
2022-12-08T06:29:54.306Z,3.37
2022-12-08T06:30:54.278Z,3.40
2022-12-08T06:31:54.343Z,3.37
2022-12-08T06:32:54.230Z,3.36
2022-12-08T06:33:54.251Z,3.34
2022-12-08T06:34:54.228Z,3.32
2022-12-08T06:35:54.237Z,3.32
2022-12-08T06:36:54.219Z,3.31
2022-12-08T06:37:54.208Z,3.31
2022-12-08T06:38:54.190Z,3.32
2022-12-08T06:39:54.215Z,3.32
2022-12-08T06:40:54.175Z,3.31
2022-12-08T06:41:54.171Z,3.29
2022-12-08T06:42:54.138Z,3.31
2022-12-08T06:43:54.143Z,3.26
2022-12-08T06:44:54.121Z,3.25
2022-12-08T06:45:54.195Z,3.23
2022-12-08T06:46:54.099Z,3.18
2022-12-08T06:47:54.108Z,3.16
2022-12-08T06:48:54.073Z,3.14
2022-12-08T06:49:54.087Z,3.13
2022-12-08T06:50:54.063Z,3.13
2022-12-08T06:51:54.062Z,3.11
2022-12-08T06:53:03.116Z,3.11
2022-12-08T06:53:54.054Z,3.10
2022-12-08T06:54:54.008Z,3.10
2022-12-08T06:56:01.313Z,3.10
2022-12-08T06:56:53.992Z,3.08
2022-12-08T06:57:54.279Z,3.10
2022-12-08T06:58:53.972Z,3.07
2022-12-08T06:59:53.979Z,3.08
2022-12-08T07:00:54.114Z,3.07
2022-12-08T07:01:54.040Z,3.04
2022-12-08T07:02:53.969Z,3.05
2022-12-08T07:03:53.933Z,3.04
2022-12-08T07:04:53.901Z,3.05
2022-12-08T07:05:54.782Z,3.05
2022-12-08T07:06:53.899Z,3.07
2022-12-08T07:07:53.959Z,3.03
2022-12-08T07:08:53.873Z,3.05
2022-12-08T07:09:53.882Z,3.07
2022-12-08T07:10:53.844Z,3.05
2022-12-08T07:11:53.864Z,3.03
2022-12-08T07:12:53.834Z,3.05
2022-12-08T07:13:53.835Z,3.05
2022-12-08T07:14:53.814Z,3.07
2022-12-08T07:15:53.816Z,3.05
2022-12-08T07:16:53.942Z,3.07
2022-12-08T07:17:59.531Z,3.07
2022-12-08T07:18:53.766Z,3.08
2022-12-08T07:19:53.774Z,3.08
2022-12-08T07:20:53.760Z,3.10
2022-12-08T07:21:53.765Z,3.08
2022-12-08T07:22:53.732Z,3.11
2022-12-08T07:23:57.678Z,3.08
2022-12-08T07:24:53.717Z,3.10
2022-12-08T07:25:53.720Z,3.13
2022-12-08T07:26:53.709Z,3.13
2022-12-08T07:27:53.685Z,3.11
2022-12-08T07:28:53.697Z,3.13
2022-12-08T07:29:53.646Z,3.10
2022-12-08T07:30:53.698Z,3.14
2022-12-08T07:31:53.630Z,3.11
2022-12-08T07:32:53.650Z,3.13
2022-12-08T07:33:53.619Z,3.11
2022-12-08T07:34:53.619Z,3.11
2022-12-08T07:35:53.589Z,3.13
2022-12-08T07:36:53.604Z,3.14
2022-12-08T07:37:53.563Z,3.14
2022-12-08T07:38:53.589Z,3.11
2022-12-08T07:39:53.561Z,3.10
2022-12-08T07:40:53.576Z,3.13
2022-12-08T07:41:53.517Z,3.10
2022-12-08T07:42:53.534Z,3.11
2022-12-08T07:43:53.614Z,3.13
2022-12-08T07:44:53.538Z,3.11
2022-12-08T07:45:53.549Z,3.14
2022-12-08T07:46:53.487Z,3.16
2022-12-08T07:47:53.484Z,3.11
2022-12-08T07:48:53.487Z,3.14
2022-12-08T07:49:53.443Z,3.16
2022-12-08T07:50:53.463Z,3.13
2022-12-08T07:51:53.444Z,3.16
2022-12-08T07:52:53.460Z,3.16
2022-12-08T07:53:54.860Z,3.18
2022-12-08T07:54:53.413Z,3.19
2022-12-08T07:55:53.405Z,3.18
2022-12-08T07:56:53.388Z,3.18
2022-12-08T07:57:53.352Z,3.19
2022-12-08T07:58:53.380Z,3.19
2022-12-08T07:59:53.368Z,3.14
2022-12-08T08:00:53.561Z,3.16
2022-12-08T08:02:19.545Z,3.14
2022-12-08T08:02:53.520Z,3.19
2022-12-08T08:03:53.318Z,3.13
2022-12-08T08:04:53.476Z,3.10
2022-12-08T08:05:53.271Z,3.11
2022-12-08T08:06:53.321Z,3.13
2022-12-08T08:07:53.316Z,3.10
2022-12-08T08:08:53.268Z,3.13
2022-12-08T08:09:53.285Z,3.11
2022-12-08T08:10:53.247Z,3.08
2022-12-08T08:12:14.725Z,3.08
2022-12-08T08:12:53.230Z,3.08
2022-12-08T08:13:53.189Z,3.08
2022-12-08T08:14:53.200Z,3.13
2022-12-08T08:15:53.315Z,3.10
2022-12-08T08:16:53.318Z,3.08
2022-12-08T08:17:53.171Z,3.10
2022-12-08T08:18:53.170Z,3.10
2022-12-08T08:19:53.137Z,3.10
2022-12-08T08:20:53.164Z,3.07
2022-12-08T08:21:53.122Z,3.08
2022-12-08T08:22:53.119Z,3.07
2022-12-08T08:23:53.083Z,3.03
2022-12-08T08:24:53.108Z,3.04
2022-12-08T08:25:53.083Z,3.05
2022-12-08T08:26:53.085Z,3.07
2022-12-08T08:27:53.044Z,3.05
2022-12-08T08:28:53.060Z,3.05
2022-12-08T08:29:53.046Z,3.05
2022-12-08T08:30:53.108Z,3.01
2022-12-08T08:31:53.007Z,3.04
2022-12-08T08:32:53.028Z,3.01
2022-12-08T08:33:53.022Z,3.03
2022-12-08T08:34:53.000Z,3.01
2022-12-08T08:35:52.961Z,3.00
2022-12-08T08:36:53.049Z,3.01
2022-12-08T08:37:52.976Z,3.00
2022-12-08T08:38:52.976Z,3.00
2022-12-08T08:39:52.921Z,2.98
2022-12-08T08:40:52.944Z,3.00
2022-12-08T08:41:52.912Z,3.00
2022-12-08T08:42:52.919Z,3.00
2022-12-08T08:43:52.884Z,2.97
2022-12-08T08:44:52.896Z,2.95
2022-12-08T08:45:52.915Z,2.98
2022-12-08T08:46:53.001Z,3.00
2022-12-08T08:47:52.843Z,2.98
2022-12-08T08:48:52.853Z,2.98
2022-12-08T08:49:52.819Z,2.98
2022-12-08T08:50:52.835Z,2.97
2022-12-08T08:51:52.844Z,2.95
2022-12-08T08:52:52.816Z,2.97
2022-12-08T08:53:52.793Z,2.92
2022-12-08T08:54:52.810Z,2.97
2022-12-08T08:55:52.759Z,2.95
2022-12-08T08:56:52.780Z,2.92
2022-12-08T08:57:52.757Z,2.92
2022-12-08T08:58:52.748Z,2.92
2022-12-08T08:59:52.732Z,2.89
2022-12-08T09:00:52.756Z,2.89
2022-12-08T09:01:52.744Z,2.86
2022-12-08T09:02:52.716Z,2.87
2022-12-08T09:03:52.677Z,2.90
2022-12-08T09:04:52.760Z,2.92
2022-12-08T09:05:52.750Z,2.90
2022-12-08T09:06:52.683Z,2.85
2022-12-08T09:07:52.692Z,2.89
2022-12-08T09:08:52.649Z,2.89
2022-12-08T09:09:55.803Z,2.89
2022-12-08T09:10:52.671Z,2.89
2022-12-08T09:11:52.612Z,2.90
2022-12-08T09:12:52.606Z,2.90
2022-12-08T09:13:52.576Z,2.90
2022-12-08T09:14:52.584Z,2.90
2022-12-08T09:15:52.675Z,2.90
2022-12-08T09:16:52.579Z,2.92
2022-12-08T09:17:52.530Z,2.95
2022-12-08T09:18:52.543Z,2.92
2022-12-08T09:19:52.505Z,2.98
2022-12-08T09:20:52.516Z,2.93
2022-12-08T09:21:52.498Z,2.95
2022-12-08T09:22:52.513Z,2.97
2022-12-08T09:23:52.469Z,2.95
2022-12-08T09:24:52.478Z,3.00
2022-12-08T09:25:52.453Z,2.98
2022-12-08T09:26:52.457Z,3.00
2022-12-08T09:27:52.441Z,2.98
2022-12-08T09:28:52.447Z,3.00
2022-12-08T09:29:52.416Z,2.98
2022-12-08T09:30:52.485Z,2.98
2022-12-08T09:31:52.535Z,3.00
2022-12-08T09:32:52.422Z,2.98
2022-12-08T09:33:52.409Z,2.98
2022-12-08T09:34:52.530Z,2.95
2022-12-08T09:35:52.346Z,2.90
2022-12-08T09:36:52.364Z,2.87
2022-12-08T09:37:52.324Z,2.85
2022-12-08T09:38:52.369Z,2.85
2022-12-08T09:39:52.301Z,2.85
2022-12-08T09:40:52.317Z,2.83
2022-12-08T09:41:52.278Z,2.85
2022-12-08T09:42:52.307Z,2.86
2022-12-08T09:43:52.267Z,2.80
2022-12-08T09:44:52.318Z,2.79
2022-12-08T09:45:52.243Z,2.80
2022-12-08T09:46:52.364Z,2.80
2022-12-08T09:47:52.231Z,2.75
2022-12-08T09:48:52.242Z,2.74
2022-12-08T09:49:52.223Z,2.77
2022-12-08T09:50:52.240Z,2.77
2022-12-08T09:51:52.179Z,2.77
2022-12-08T09:52:52.191Z,2.72
2022-12-08T09:53:52.178Z,2.74
2022-12-08T09:54:52.184Z,2.75
2022-12-08T09:55:52.149Z,2.75
2022-12-08T09:56:52.162Z,2.75
2022-12-08T09:57:56.293Z,2.74
2022-12-08T09:58:52.139Z,2.71
2022-12-08T09:59:52.115Z,2.72
2022-12-08T10:00:52.133Z,2.74
2022-12-08T10:01:52.184Z,2.77
2022-12-08T10:02:52.139Z,2.72
2022-12-08T10:03:52.073Z,2.72
2022-12-08T10:04:52.137Z,2.74
2022-12-08T10:05:52.041Z,2.77
2022-12-08T10:06:52.047Z,2.80
2022-12-08T10:07:52.121Z,2.79
2022-12-08T10:08:52.041Z,2.71
2022-12-08T10:09:52.011Z,2.71
2022-12-08T10:10:52.018Z,2.68
2022-12-08T10:11:51.972Z,2.69
2022-12-08T10:12:52.001Z,2.71
2022-12-08T10:13:51.959Z,2.71
2022-12-08T10:14:51.990Z,2.72
2022-12-08T10:15:52.006Z,2.71
2022-12-08T10:16:52.031Z,2.68
2022-12-08T10:17:51.917Z,2.65
2022-12-08T10:18:51.937Z,2.67
2022-12-08T10:19:51.894Z,2.62
2022-12-08T10:20:51.949Z,2.64
2022-12-08T10:21:51.874Z,2.64
2022-12-08T10:22:51.893Z,2.65
2022-12-08T10:23:51.860Z,2.62
2022-12-08T10:24:51.858Z,2.60
2022-12-08T10:25:51.841Z,2.60
2022-12-08T10:26:51.874Z,2.61
2022-12-08T10:27:51.824Z,2.61
2022-12-08T10:28:51.836Z,2.62
2022-12-08T10:29:51.799Z,2.62
2022-12-08T10:30:51.817Z,2.57
2022-12-08T10:31:51.836Z,2.60
2022-12-08T10:32:51.790Z,2.57
2022-12-08T10:33:51.803Z,2.60
2022-12-08T10:34:56.208Z,2.61
2022-12-08T10:35:51.725Z,2.60
2022-12-08T10:36:51.733Z,2.62
2022-12-08T10:37:51.703Z,2.61
2022-12-08T10:38:51.755Z,2.65
2022-12-08T10:39:51.689Z,2.67
2022-12-08T10:40:51.714Z,2.62
2022-12-08T10:41:51.683Z,2.62
2022-12-08T10:42:51.677Z,2.65
2022-12-08T10:43:51.651Z,2.60
2022-12-08T10:44:51.675Z,2.62
2022-12-08T10:45:51.621Z,2.61
2022-12-08T10:46:51.689Z,2.56
2022-12-08T10:47:55.404Z,2.53
2022-12-08T10:48:51.627Z,2.53
2022-12-08T10:49:51.579Z,2.49
2022-12-08T10:50:51.632Z,2.49
2022-12-08T10:51:51.574Z,2.50
2022-12-08T10:52:51.602Z,2.50
2022-12-08T10:53:51.538Z,2.51
2022-12-08T10:54:51.550Z,2.51
2022-12-08T10:55:51.549Z,2.44
2022-12-08T10:56:51.568Z,2.46
2022-12-08T10:57:51.511Z,2.47
2022-12-08T10:58:51.506Z,2.47
2022-12-08T10:59:51.482Z,2.44
2022-12-08T11:00:51.565Z,2.47
2022-12-08T11:01:51.643Z,2.47
2022-12-08T11:02:51.591Z,2.46
2022-12-08T11:03:51.459Z,2.47
2022-12-08T11:04:51.448Z,2.49
2022-12-08T11:05:51.432Z,2.49
2022-12-08T11:06:51.441Z,2.44
2022-12-08T11:07:51.453Z,2.44
2022-12-08T11:08:51.491Z,2.47
2022-12-08T11:09:51.377Z,2.47
2022-12-08T11:10:51.400Z,2.49
2022-12-08T11:11:51.383Z,2.50
2022-12-08T11:12:51.369Z,2.47
2022-12-08T11:13:51.357Z,2.51
2022-12-08T11:14:51.361Z,2.49
2022-12-08T11:15:51.338Z,2.47
2022-12-08T11:16:51.459Z,2.49
2022-12-08T11:17:57.451Z,2.47
2022-12-08T11:18:51.336Z,2.49
2022-12-08T11:19:51.278Z,2.50
2022-12-08T11:20:51.309Z,2.49
2022-12-08T11:21:51.296Z,2.49
2022-12-08T11:22:52.023Z,2.46
2022-12-08T11:23:51.231Z,2.47
2022-12-08T11:24:51.263Z,2.49
2022-12-08T11:25:51.219Z,2.50
2022-12-08T11:26:51.249Z,2.51
2022-12-08T11:27:51.194Z,2.56
2022-12-08T11:28:51.236Z,2.54
2022-12-08T11:29:51.181Z,2.54
2022-12-08T11:30:51.189Z,2.54
2022-12-08T11:31:51.211Z,2.57
2022-12-08T11:32:51.175Z,2.51
2022-12-08T11:33:51.136Z,2.56
2022-12-08T11:34:51.169Z,2.51
2022-12-08T11:35:51.106Z,2.51
2022-12-08T11:36:51.123Z,2.54
2022-12-08T11:37:51.090Z,2.56
2022-12-08T11:38:51.135Z,2.57
2022-12-08T11:39:51.061Z,2.54
2022-12-08T11:40:51.101Z,2.56
2022-12-08T11:41:51.039Z,2.50
2022-12-08T11:42:51.918Z,2.51
2022-12-08T11:43:51.057Z,2.49
2022-12-08T11:44:51.028Z,2.50
2022-12-08T11:45:51.087Z,2.49
2022-12-08T11:46:50.996Z,2.47
2022-12-08T11:47:55.607Z,2.51
2022-12-08T11:48:50.979Z,2.53
2022-12-08T11:49:50.987Z,2.51
2022-12-08T11:50:51.002Z,2.50
2022-12-08T11:51:50.987Z,2.50
2022-12-08T11:52:50.943Z,2.46
2022-12-08T11:53:50.957Z,2.44
2022-12-08T11:54:50.935Z,2.47
2022-12-08T11:55:50.919Z,2.42
2022-12-08T11:56:50.953Z,2.43
2022-12-08T11:57:50.985Z,2.43
2022-12-08T11:58:51.008Z,2.39
2022-12-08T11:59:50.904Z,2.38
2022-12-08T12:00:50.863Z,2.39
2022-12-08T12:01:50.907Z,2.33
2022-12-08T12:02:50.880Z,2.35
2022-12-08T12:03:50.840Z,2.36
2022-12-08T12:04:50.818Z,2.36
2022-12-08T12:06:18.295Z,2.35
2022-12-08T12:06:55.050Z,2.36
2022-12-08T12:07:50.886Z,2.39
2022-12-08T12:08:50.775Z,2.36
2022-12-08T12:09:50.771Z,2.35
2022-12-08T12:10:50.745Z,2.35
2022-12-08T12:11:50.771Z,2.35
2022-12-08T12:12:50.741Z,2.35
2022-12-08T12:13:50.741Z,2.36
2022-12-08T12:14:50.699Z,2.33
2022-12-08T12:15:50.728Z,2.35
2022-12-08T12:16:50.760Z,2.35
2022-12-08T12:17:50.710Z,2.38
2022-12-08T12:18:50.671Z,2.35
2022-12-08T12:19:50.673Z,2.38
2022-12-08T12:20:50.670Z,2.33
2022-12-08T12:21:50.669Z,2.36
2022-12-08T12:22:50.650Z,2.33
2022-12-08T12:23:50.639Z,2.33
2022-12-08T12:24:50.600Z,2.35
2022-12-08T12:25:50.620Z,2.29
2022-12-08T12:26:50.615Z,2.32
2022-12-08T12:27:50.604Z,2.35
2022-12-08T12:28:50.569Z,2.35
2022-12-08T12:29:55.491Z,2.35
2022-12-08T12:30:50.600Z,2.43
2022-12-08T12:31:50.552Z,2.43
2022-12-08T12:32:50.544Z,2.44
2022-12-08T12:33:50.544Z,2.44
2022-12-08T12:34:50.501Z,2.44
2022-12-08T12:35:50.531Z,2.50
2022-12-08T12:36:50.479Z,2.54
2022-12-08T12:37:50.485Z,2.57
2022-12-08T12:38:50.488Z,2.60
2022-12-08T12:39:50.481Z,2.61
2022-12-08T12:40:50.440Z,2.61
2022-12-08T12:41:50.465Z,2.64
2022-12-08T12:42:50.411Z,2.62
2022-12-08T12:43:50.460Z,2.61
2022-12-08T12:44:50.396Z,2.60
2022-12-08T12:45:50.441Z,2.62
2022-12-08T12:46:50.373Z,2.61
2022-12-08T12:47:55.907Z,2.61
2022-12-08T12:48:50.421Z,2.65
2022-12-08T12:49:50.366Z,2.67
2022-12-08T12:50:50.338Z,2.64
2022-12-08T12:51:50.351Z,2.65
2022-12-08T12:52:50.317Z,2.64
2022-12-08T12:53:50.319Z,2.62
2022-12-08T12:54:50.326Z,2.68
2022-12-08T12:55:50.331Z,2.68
2022-12-08T12:56:50.302Z,2.72
2022-12-08T12:57:50.279Z,2.74
2022-12-08T12:58:50.249Z,2.75
2022-12-08T12:59:55.277Z,2.75
2022-12-08T13:00:50.246Z,2.79
2022-12-08T13:01:50.326Z,2.82
2022-12-08T13:02:50.262Z,2.75
2022-12-08T13:03:50.218Z,2.77
2022-12-08T13:04:50.224Z,2.74
2022-12-08T13:05:50.211Z,2.72
2022-12-08T13:06:50.196Z,2.75
2022-12-08T13:07:50.230Z,2.75
2022-12-08T13:08:50.148Z,2.75
2022-12-08T13:09:50.157Z,2.74
2022-12-08T13:10:50.146Z,2.75
2022-12-08T13:11:50.139Z,2.74
2022-12-08T13:12:50.124Z,2.72
2022-12-08T13:13:50.124Z,2.72
2022-12-08T13:14:50.097Z,2.74
2022-12-08T13:15:50.116Z,2.74
2022-12-08T13:16:50.188Z,2.74
2022-12-08T13:17:50.094Z,2.74
2022-12-08T13:18:50.065Z,2.77